Time;durP1;ratioP1;P1;durP2;ratioP2;P2;SDS_P1;SDS_P2;PMS_P1;PMS_P2;Temp;Humidity;BMP_temperature;BMP_pressure;BME280_temperature;BME280_humidity;BME280_pressure;Samples;Min_cycle;Max_cycle;Signal;HPM_P1;HPM_P2
2021/06/01 00:01:22;;;;;;;6.95;3.53;;;;;;;;;;3587352;40;20044;-59
2021/06/01 00:03:47;;;;;;;5.07;3.63;;;;;;;;;;3585636;40;20086;-59
2021/06/01 00:06:13;;;;;;;5.85;3.33;;;;;;;;;;3584611;40;20032;-60
2021/06/01 00:08:39;;;;;;;4.72;3.72;;;;;;;;;;3585391;40;20053;-60
2021/06/01 00:11:07;;;;;;;7.18;3.40;;;;;;;;;;3585659;40;20044;-60
2021/06/01 00:13:34;;;;;;;7.53;3.80;;;;;;;;;;3578465;40;20044;-59
2021/06/01 00:15:59;;;;;;;8.98;3.95;;;;;;;;;;3584525;40;20086;-59
2021/06/01 00:18:25;;;;;;;7.60;3.65;;;;;;;;;;3586207;40;20357;-59
2021/06/01 00:20:50;;;;;;;6.90;3.75;;;;;;;;;;3586293;40;20396;-59
2021/06/01 00:23:15;;;;;;;6.05;3.53;;;;;;;;;;3577835;40;20082;-59
2021/06/01 00:25:41;;;;;;;5.20;4.03;;;;;;;;;;3584589;40;20233;-59
2021/06/01 00:28:06;;;;;;;4.78;3.47;;;;;;;;;;3585925;40;20040;-59
2021/06/01 00:30:32;;;;;;;6.97;3.85;;;;;;;;;;3584958;40;20029;-59
2021/06/01 00:32:57;;;;;;;5.30;3.70;;;;;;;;;;3585114;40;20041;-59
2021/06/01 00:35:23;;;;;;;6.07;4.05;;;;;;;;;;3584098;40;20052;-59
2021/06/01 00:37:48;;;;;;;6.95;3.60;;;;;;;;;;3586897;40;20040;-59
2021/06/01 00:40:13;;;;;;;5.70;3.47;;;;;;;;;;3587242;40;20284;-59
2021/06/01 00:42:39;;;;;;;6.22;4.00;;;;;;;;;;3586408;40;20029;-59
2021/06/01 00:45:06;;;;;;;5.50;3.67;;;;;;;;;;3586467;40;20028;-59
2021/06/01 00:47:31;;;;;;;5.18;3.65;;;;;;;;;;3587724;40;20036;-59
2021/06/01 00:49:57;;;;;;;7.65;3.47;;;;;;;;;;3584315;40;20434;-59
2021/06/01 00:52:22;;;;;;;5.75;2.92;;;;;;;;;;3585744;40;20056;-59
2021/06/01 00:54:48;;;;;;;5.82;4.20;;;;;;;;;;3585738;40;20033;-57
2021/06/01 00:57:13;;;;;;;8.57;3.75;;;;;;;;;;3585462;40;20462;-59
2021/06/01 00:59:39;;;;;;;5.40;3.67;;;;;;;;;;3586633;40;20084;-59
2021/06/01 01:02:05;;;;;;;5.10;3.00;;;;;;;;;;3585745;40;20285;-59
2021/06/01 01:04:31;;;;;;;5.45;3.72;;;;;;;;;;3587217;40;20039;-59
2021/06/01 01:07:17;;;;;;;4.75;3.35;;;;;;;;;;3587660;40;20036;-59
2021/06/01 01:09:45;;;;;;;6.03;3.25;;;;;;;;;;3587793;40;20044;-59
2021/06/01 01:12:37;;;;;;;4.53;3.20;;;;;;;;;;3587849;40;20035;-59
2021/06/01 01:15:05;;;;;;;8.60;3.60;;;;;;;;;;3587371;40;20041;-59
2021/06/01 01:17:41;;;;;;;8.40;3.60;;;;;;;;;;3586739;40;20045;-59
2021/06/01 01:20:35;;;;;;;15.00;3.50;;;;;;;;;;3586041;40;20070;-59
2021/06/01 01:23:14;;;;;;;6.30;3.70;;;;;;;;;;3556936;40;20055;-59
2021/06/01 01:25:46;;;;;;;4.60;3.47;;;;;;;;;;3586366;40;20052;-59
2021/06/01 01:28:31;;;;;;;7.82;4.10;;;;;;;;;;3586241;40;20600;-59
2021/06/01 01:31:01;;;;;;;5.20;3.63;;;;;;;;;;3587977;40;20053;-59
2021/06/01 01:33:39;;;;;;;5.63;4.07;;;;;;;;;;3578639;40;20033;-59
2021/06/01 01:36:10;;;;;;;4.53;3.55;;;;;;;;;;3585425;40;20060;-59
2021/06/01 01:38:38;;;;;;;5.90;4.07;;;;;;;;;;3586575;40;20049;-59
2021/06/01 01:41:09;;;;;;;5.63;3.42;;;;;;;;;;3587194;40;20363;-59
2021/06/01 01:43:36;;;;;;;8.23;3.80;;;;;;;;;;3585778;40;20061;-59
2021/06/01 01:46:23;;;;;;;5.55;3.58;;;;;;;;;;3586170;40;20025;-59
2021/06/01 01:49:01;;;;;;;5.65;3.80;;;;;;;;;;3587413;40;20032;-59
2021/06/01 01:51:39;;;;;;;4.85;3.72;;;;;;;;;;3588483;40;20052;-59
2021/06/01 01:54:16;;;;;;;7.07;3.65;;;;;;;;;;3587423;40;20029;-59
2021/06/01 01:56:45;;;;;;;6.03;3.22;;;;;;;;;;3586602;40;20516;-59
2021/06/01 01:59:15;;;;;;;5.40;3.88;;;;;;;;;;3587587;40;20141;-59
2021/06/01 02:01:42;;;;;;;13.10;4.22;;;;;;;;;;3585645;40;20040;-59
2021/06/01 02:04:09;;;;;;;5.45;4.07;;;;;;;;;;3585642;40;20363;-59
2021/06/01 02:06:35;;;;;;;8.18;3.90;;;;;;;;;;3587129;40;20049;-59
2021/06/01 02:09:01;;;;;;;4.85;3.40;;;;;;;;;;3587421;40;20081;-59
2021/06/01 02:11:26;;;;;;;7.25;3.70;;;;;;;;;;3577844;40;20033;-59
2021/06/01 02:14:00;;;;;;;4.68;3.25;;;;;;;;;;3585960;40;20298;-59
2021/06/01 02:16:27;;;;;;;8.50;3.60;;;;;;;;;;3584075;40;20407;-59
2021/06/01 02:18:53;;;;;;;7.60;3.75;;;;;;;;;;3586905;40;20133;-59
2021/06/01 02:21:33;;;;;;;7.68;3.58;;;;;;;;;;3588830;40;20522;-59
2021/06/01 02:24:03;;;;;;;6.15;3.45;;;;;;;;;;3588607;40;20065;-59
2021/06/01 02:26:51;;;;;;;5.63;3.57;;;;;;;;;;3586386;40;20028;-60
2021/06/01 02:29:27;;;;;;;5.03;3.50;;;;;;;;;;3587859;40;20036;-59
2021/06/01 02:31:53;;;;;;;6.50;3.72;;;;;;;;;;3587041;40;20059;-59
2021/06/01 02:34:21;;;;;;;6.93;3.13;;;;;;;;;;3586416;40;20029;-60
2021/06/01 02:36:51;;;;;;;4.57;3.20;;;;;;;;;;3586765;40;20137;-59
2021/06/01 02:39:18;;;;;;;6.10;3.33;;;;;;;;;;3588175;40;20060;-59
2021/06/01 02:41:43;;;;;;;5.20;3.65;;;;;;;;;;3587304;40;20106;-59
2021/06/01 02:44:10;;;;;;;4.45;3.40;;;;;;;;;;3587071;40;20039;-57
2021/06/01 02:46:37;;;;;;;7.22;3.28;;;;;;;;;;3578663;40;20044;-59
2021/06/01 02:49:05;;;;;;;6.15;3.10;;;;;;;;;;3587309;40;20077;-58
2021/06/01 02:51:32;;;;;;;4.22;3.03;;;;;;;;;;3584845;39;20033;-59
2021/06/01 02:53:58;;;;;;;5.75;3.72;;;;;;;;;;3586769;40;20401;-57
2021/06/01 02:56:24;;;;;;;4.65;3.08;;;;;;;;;;3586047;40;20256;-59
2021/06/01 02:58:50;;;;;;;5.68;3.67;;;;;;;;;;3579485;40;20051;-59
2021/06/01 03:01:18;;;;;;;9.02;3.10;;;;;;;;;;3587945;40;20040;-58
2021/06/01 03:03:48;;;;;;;4.85;3.20;;;;;;;;;;3585596;40;20024;-58
2021/06/01 03:06:18;;;;;;;6.10;3.65;;;;;;;;;;3577684;40;20043;-59
2021/06/01 03:08:43;;;;;;;5.10;3.60;;;;;;;;;;3586928;40;20029;-59
2021/06/01 03:11:10;;;;;;;6.25;3.50;;;;;;;;;;3588128;40;20114;-59
2021/06/01 03:13:35;;;;;;;7.22;3.67;;;;;;;;;;3584434;40;20407;-59
2021/06/01 03:16:02;;;;;;;4.70;3.20;;;;;;;;;;3585385;39;20045;-59
2021/06/01 03:18:28;;;;;;;5.75;3.88;;;;;;;;;;3586267;40;20505;-59
2021/06/01 03:20:53;;;;;;;7.18;4.10;;;;;;;;;;3585256;40;20032;-59
2021/06/01 03:23:19;;;;;;;6.40;3.92;;;;;;;;;;3585033;40;20380;-59
2021/06/01 03:25:45;;;;;;;4.97;3.13;;;;;;;;;;3584122;40;20330;-59
2021/06/01 03:28:10;;;;;;;5.00;3.50;;;;;;;;;;3585703;40;20029;-59
2021/06/01 03:30:37;;;;;;;4.68;3.75;;;;;;;;;;3586923;40;20041;-59
2021/06/01 03:33:03;;;;;;;6.53;3.47;;;;;;;;;;3585511;40;20126;-59
2021/06/01 03:35:29;;;;;;;6.13;3.80;;;;;;;;;;3579696;40;20033;-59
2021/06/01 03:37:56;;;;;;;6.47;3.58;;;;;;;;;;3586664;40;20478;-59
2021/06/01 03:40:23;;;;;;;6.05;4.03;;;;;;;;;;3584886;40;20044;-59
2021/06/01 03:42:49;;;;;;;8.93;3.88;;;;;;;;;;3584976;40;20141;-59
2021/06/01 03:45:14;;;;;;;9.00;4.10;;;;;;;;;;3585925;40;20041;-59
2021/06/01 03:47:41;;;;;;;10.43;3.97;;;;;;;;;;3586993;40;20041;-59
2021/06/01 03:50:08;;;;;;;8.75;4.07;;;;;;;;;;3586719;40;20062;-59
2021/06/01 03:52:33;;;;;;;6.20;4.40;;;;;;;;;;3587249;40;20036;-59
2021/06/01 03:54:59;;;;;;;8.05;4.47;;;;;;;;;;3587284;40;20057;-59
2021/06/01 03:57:24;;;;;;;6.07;4.10;;;;;;;;;;3586395;40;20356;-59
2021/06/01 03:59:50;;;;;;;5.38;4.05;;;;;;;;;;3587352;40;20029;-59
2021/06/01 04:02:16;;;;;;;6.75;4.28;;;;;;;;;;3586145;40;20029;-59
2021/06/01 04:04:41;;;;;;;7.20;4.18;;;;;;;;;;3585947;40;20412;-60
2021/06/01 04:07:09;;;;;;;7.30;4.43;;;;;;;;;;3586735;40;20128;-59
2021/06/01 04:09:34;;;;;;;6.95;4.57;;;;;;;;;;3586970;40;20055;-60
2021/06/01 04:12:00;;;;;;;8.88;5.05;;;;;;;;;;3584878;40;20568;-59
2021/06/01 04:14:25;;;;;;;6.22;4.78;;;;;;;;;;3586987;40;20098;-59
2021/06/01 04:16:51;;;;;;;9.90;4.45;;;;;;;;;;3576137;40;20036;-60
2021/06/01 04:19:17;;;;;;;7.72;4.97;;;;;;;;;;3585925;40;20033;-59
2021/06/01 04:21:43;;;;;;;6.13;4.85;;;;;;;;;;3586809;40;20061;-59
2021/06/01 04:24:11;;;;;;;11.82;4.18;;;;;;;;;;3585304;40;20474;-59
2021/06/01 04:26:37;;;;;;;6.40;4.57;;;;;;;;;;3585407;40;20035;-59
2021/06/01 04:29:03;;;;;;;6.45;4.78;;;;;;;;;;3586125;40;20029;-59
2021/06/01 04:31:28;;;;;;;13.48;4.80;;;;;;;;;;3585492;40;20029;-59
2021/06/01 04:33:54;;;;;;;8.30;4.45;;;;;;;;;;3585063;40;20441;-59
2021/06/01 04:36:19;;;;;;;6.95;4.22;;;;;;;;;;3586055;40;20025;-59
2021/06/01 04:38:44;;;;;;;6.15;4.82;;;;;;;;;;3586454;40;20359;-59
2021/06/01 04:41:10;;;;;;;6.45;4.88;;;;;;;;;;3578905;40;20063;-59
2021/06/01 04:43:35;;;;;;;7.72;4.57;;;;;;;;;;3585727;40;20033;-59
2021/06/01 04:46:01;;;;;;;5.65;4.35;;;;;;;;;;3586328;40;20127;-59
2021/06/01 04:48:26;;;;;;;8.07;4.20;;;;;;;;;;3587605;40;20032;-59
2021/06/01 04:50:51;;;;;;;7.00;4.47;;;;;;;;;;3578290;40;20044;-59
2021/06/01 04:53:17;;;;;;;6.75;4.65;;;;;;;;;;3584816;40;20372;-59
2021/06/01 04:55:42;;;;;;;7.70;4.57;;;;;;;;;;3585991;40;20102;-59
2021/06/01 04:58:08;;;;;;;7.80;4.63;;;;;;;;;;3587547;40;20400;-59
2021/06/01 05:00:33;;;;;;;5.30;4.32;;;;;;;;;;3587965;40;20032;-59
2021/06/01 05:02:59;;;;;;;6.13;4.45;;;;;;;;;;3580332;40;20036;-59
2021/06/01 05:05:24;;;;;;;6.75;4.22;;;;;;;;;;3586456;40;20028;-59
2021/06/01 05:07:50;;;;;;;5.25;4.10;;;;;;;;;;3588772;40;20032;-59
2021/06/01 05:10:15;;;;;;;8.07;4.07;;;;;;;;;;3585721;40;20029;-59
2021/06/01 05:12:40;;;;;;;6.88;4.53;;;;;;;;;;3584429;40;20375;-59
2021/06/01 05:15:07;;;;;;;6.18;4.38;;;;;;;;;;3587457;40;20044;-59
2021/06/01 05:17:33;;;;;;;6.43;4.10;;;;;;;;;;3587617;40;20032;-59
2021/06/01 05:19:58;;;;;;;7.80;3.70;;;;;;;;;;3587649;40;20071;-59
2021/06/01 05:22:24;;;;;;;7.93;3.97;;;;;;;;;;3578319;40;20047;-59
2021/06/01 05:24:49;;;;;;;5.30;4.18;;;;;;;;;;3587892;40;20267;-59
2021/06/01 05:27:14;;;;;;;5.45;4.18;;;;;;;;;;3587654;40;20036;-59
2021/06/01 05:29:44;;;;;;;4.82;3.53;;;;;;;;;;3587438;40;20044;-62
2021/06/01 05:35:04;;;;;;;6.68;3.85;;;;;;;;;;3588375;40;20043;-59
2021/06/01 05:37:33;;;;;;;6.53;3.90;;;;;;;;;;3586605;40;20044;-59
2021/06/01 05:39:59;;;;;;;7.60;3.67;;;;;;;;;;3587849;40;20048;-59
2021/06/01 05:42:25;;;;;;;6.32;4.00;;;;;;;;;;3586566;40;20052;-59
2021/06/01 05:44:50;;;;;;;5.80;3.90;;;;;;;;;;3586092;40;20052;-59
2021/06/01 05:47:17;;;;;;;6.82;4.00;;;;;;;;;;3587833;40;20044;-58
2021/06/01 05:49:43;;;;;;;4.60;3.30;;;;;;;;;;3586898;40;20044;-59
2021/06/01 05:52:09;;;;;;;5.53;3.38;;;;;;;;;;3586432;40;20044;-58
2021/06/01 05:54:35;;;;;;;6.15;3.58;;;;;;;;;;3584749;40;20040;-58
2021/06/01 05:57:00;;;;;;;5.93;3.70;;;;;;;;;;3586340;40;20039;-58
2021/06/01 05:59:26;;;;;;;6.22;4.00;;;;;;;;;;3586142;40;20202;-58
2021/06/01 06:01:51;;;;;;;8.85;3.63;;;;;;;;;;3586644;40;20028;-58
2021/06/01 06:04:17;;;;;;;5.53;3.65;;;;;;;;;;3583306;40;20047;-59
2021/06/01 06:06:42;;;;;;;6.07;3.20;;;;;;;;;;3584226;40;20373;-58
2021/06/01 06:09:08;;;;;;;4.28;3.13;;;;;;;;;;3587090;40;20024;-58
2021/06/01 06:11:34;;;;;;;7.05;3.83;;;;;;;;;;3587188;40;20383;-58
2021/06/01 06:13:59;;;;;;;6.60;3.33;;;;;;;;;;3583700;40;20368;-58
2021/06/01 06:16:27;;;;;;;8.38;3.60;;;;;;;;;;3586348;40;20124;-58
2021/06/01 06:18:57;;;;;;;5.80;3.78;;;;;;;;;;3587060;40;20590;-58
2021/06/01 06:21:23;;;;;;;4.30;2.55;;;;;;;;;;3586548;40;20466;-58
2021/06/01 06:23:49;;;;;;;5.20;2.92;;;;;;;;;;3583617;40;20065;-58
2021/06/01 06:26:14;;;;;;;3.92;2.60;;;;;;;;;;3586639;40;20657;-58
2021/06/01 06:28:40;;;;;;;4.30;2.80;;;;;;;;;;3587245;40;20029;-58
2021/06/01 06:31:05;;;;;;;5.93;3.15;;;;;;;;;;3586921;40;20032;-59
2021/06/01 06:33:30;;;;;;;5.13;2.53;;;;;;;;;;3585664;40;20351;-58
2021/06/01 06:35:56;;;;;;;4.93;3.15;;;;;;;;;;3579982;40;20040;-58
2021/06/01 06:38:22;;;;;;;4.80;2.78;;;;;;;;;;3585718;40;20029;-59
2021/06/01 06:43:52;;;;;;;4.43;2.70;;;;;;;;;;3571762;40;20024;-58
2021/06/01 06:46:31;;;;;;;4.45;2.72;;;;;;;;;;3586795;40;20374;-58
2021/06/01 06:48:59;;;;;;;5.63;2.88;;;;;;;;;;3585612;40;20036;-56
2021/06/01 06:51:26;;;;;;;5.25;2.58;;;;;;;;;;3578403;40;20029;-56
2021/06/01 06:53:53;;;;;;;4.05;2.40;;;;;;;;;;3587342;40;20049;-57
2021/06/01 06:56:21;;;;;;;4.20;2.70;;;;;;;;;;3586310;40;20036;-57
2021/06/01 06:58:46;;;;;;;3.80;2.35;;;;;;;;;;3586222;40;20331;-57
2021/06/01 07:01:12;;;;;;;7.65;2.85;;;;;;;;;;3586621;40;20032;-57
2021/06/01 07:03:38;;;;;;;4.30;2.50;;;;;;;;;;3585750;40;20036;-55
2021/06/01 07:06:04;;;;;;;5.05;2.83;;;;;;;;;;3586230;40;20040;-58
2021/06/01 07:08:30;;;;;;;5.38;2.95;;;;;;;;;;3586076;40;20297;-57
2021/06/01 07:10:55;;;;;;;4.85;2.58;;;;;;;;;;3587936;40;20029;-58
2021/06/01 07:13:25;;;;;;;6.60;2.97;;;;;;;;;;3585480;40;20040;-58
2021/06/01 07:15:52;;;;;;;4.47;2.60;;;;;;;;;;3584599;40;20418;-58
2021/06/01 07:18:18;;;;;;;3.95;2.45;;;;;;;;;;3585862;40;20044;-58
2021/06/01 07:20:43;;;;;;;5.75;2.90;;;;;;;;;;3584874;40;20085;-58
2021/06/01 07:23:09;;;;;;;4.68;3.00;;;;;;;;;;3585678;40;20035;-57
2021/06/01 07:25:34;;;;;;;6.20;2.97;;;;;;;;;;3586638;40;20255;-57
2021/06/01 07:28:01;;;;;;;4.30;2.38;;;;;;;;;;3587331;40;20035;-57
2021/06/01 07:30:26;;;;;;;4.38;2.53;;;;;;;;;;3586420;40;20036;-58
2021/06/01 07:32:52;;;;;;;4.80;2.83;;;;;;;;;;3576731;40;20041;-58
2021/06/01 07:35:19;;;;;;;3.97;2.65;;;;;;;;;;3585511;40;20039;-58
2021/06/01 07:37:45;;;;;;;5.55;2.80;;;;;;;;;;3586169;40;20444;-58
2021/06/01 07:40:11;;;;;;;4.78;2.88;;;;;;;;;;3579223;40;20045;-58
2021/06/01 07:42:36;;;;;;;4.20;2.75;;;;;;;;;;3584223;40;20403;-58
2021/06/01 07:45:03;;;;;;;5.65;2.70;;;;;;;;;;3585355;40;20048;-58
2021/06/01 07:47:28;;;;;;;9.35;2.78;;;;;;;;;;3585725;40;20051;-58
2021/06/01 07:49:54;;;;;;;5.05;2.53;;;;;;;;;;3586059;40;20295;-58
2021/06/01 07:52:19;;;;;;;4.80;2.80;;;;;;;;;;3584213;40;20156;-58
2021/06/01 07:54:44;;;;;;;3.85;2.58;;;;;;;;;;3583387;40;20376;-58
2021/06/01 07:57:10;;;;;;;5.03;2.80;;;;;;;;;;3582504;40;20043;-58
2021/06/01 07:59:35;;;;;;;4.90;2.55;;;;;;;;;;3583668;40;20037;-58
2021/06/01 08:02:01;;;;;;;5.63;3.95;;;;;;;;;;3584784;40;20465;-58
2021/06/01 08:04:26;;;;;;;4.03;2.13;;;;;;;;;;3585137;40;20128;-58
2021/06/01 08:06:51;;;;;;;6.35;2.90;;;;;;;;;;3585791;40;20051;-58
2021/06/01 08:09:17;;;;;;;4.95;2.78;;;;;;;;;;3585231;40;20077;-58
2021/06/01 08:11:42;;;;;;;4.38;2.50;;;;;;;;;;3583785;40;20052;-58
2021/06/01 08:14:08;;;;;;;4.88;2.53;;;;;;;;;;3585604;40;20036;-58
2021/06/01 08:16:33;;;;;;;4.38;2.47;;;;;;;;;;3587524;40;20047;-58
2021/06/01 08:19:24;;;;;;;3.92;2.10;;;;;;;;;;3587131;40;20033;-57
2021/06/01 08:21:53;;;;;;;4.13;2.28;;;;;;;;;;3586360;40;20041;-58
2021/06/01 08:24:19;;;;;;;4.20;2.63;;;;;;;;;;3589089;40;20032;-58
2021/06/01 08:26:45;;;;;;;7.10;2.45;;;;;;;;;;3587804;40;20044;-58
2021/06/01 08:29:12;;;;;;;4.78;2.85;;;;;;;;;;3588164;40;20032;-58
2021/06/01 08:31:38;;;;;;;4.38;2.67;;;;;;;;;;3587955;40;20045;-58
2021/06/01 08:34:04;;;;;;;5.13;2.67;;;;;;;;;;3584719;40;20133;-58
2021/06/01 08:36:29;;;;;;;3.97;2.10;;;;;;;;;;3589440;40;20044;-58
2021/06/01 08:38:54;;;;;;;5.40;2.42;;;;;;;;;;3577961;40;20052;-56
2021/06/01 08:41:20;;;;;;;4.53;2.03;;;;;;;;;;3587349;40;20064;-58
2021/06/01 08:43:47;;;;;;;3.88;2.10;;;;;;;;;;3585723;40;20145;-57
2021/06/01 08:46:13;;;;;;;5.55;2.28;;;;;;;;;;3586088;40;20060;-56
2021/06/01 08:48:39;;;;;;;3.80;2.38;;;;;;;;;;3585847;40;20055;-58
2021/06/01 08:51:06;;;;;;;9.85;2.00;;;;;;;;;;3588337;40;20029;-58
2021/06/01 08:53:33;;;;;;;3.30;1.92;;;;;;;;;;3588569;40;20056;-59
2021/06/01 08:55:59;;;;;;;5.10;2.22;;;;;;;;;;3588050;40;20253;-59
2021/06/01 08:58:24;;;;;;;3.35;2.10;;;;;;;;;;3585377;40;20039;-58
2021/06/01 09:00:50;;;;;;;5.75;2.33;;;;;;;;;;3587111;40;20118;-57
2021/06/01 09:03:20;;;;;;;6.63;2.60;;;;;;;;;;3585805;40;20043;-58
2021/06/01 09:08:39;;;;;;;3.85;1.83;;;;;;;;;;3587045;40;20301;-57
2021/06/01 09:11:12;;;;;;;4.75;2.72;;;;;;;;;;3587860;40;20044;-57
2021/06/01 09:14:08;;;;;;;8.05;2.53;;;;;;;;;;3585986;40;20375;-57
2021/06/01 09:22:05;;;;;;;5.75;2.53;;;;;;;;;;3585572;40;20044;-57
2021/06/01 09:24:31;;;;;;;3.90;2.13;;;;;;;;;;3584689;40;20088;-56
2021/06/01 09:27:14;;;;;;;7.00;2.97;;;;;;;;;;3587320;40;20083;-58
2021/06/01 09:29:47;;;;;;;6.35;2.42;;;;;;;;;;3586023;40;20041;-58
2021/06/01 09:32:16;;;;;;;3.53;2.10;;;;;;;;;;3585996;40;20040;-58
2021/06/01 09:34:54;;;;;;;4.40;2.33;;;;;;;;;;3585814;40;20626;-58
2021/06/01 09:37:28;;;;;;;6.30;2.20;;;;;;;;;;3587324;40;20623;-59
2021/06/01 09:40:17;;;;;;;4.97;2.72;;;;;;;;;;3587341;39;20040;-59
2021/06/01 09:42:48;;;;;;;4.73;2.53;;;;;;;;;;3585077;40;20043;-59
2021/06/01 09:45:24;;;;;;;7.07;2.15;;;;;;;;;;3588641;40;20044;-59
2021/06/01 09:47:53;;;;;;;8.98;2.10;;;;;;;;;;3586905;40;20041;-59
2021/06/01 09:52:50;;;;;;;4.90;2.80;;;;;;;;;;3587145;40;20422;-58
2021/06/01 09:55:26;;;;;;;4.10;2.20;;;;;;;;;;3588206;40;20060;-59
2021/06/01 09:57:52;;;;;;;4.07;2.22;;;;;;;;;;3585370;40;20083;-58
2021/06/01 10:00:24;;;;;;;6.70;2.60;;;;;;;;;;3587400;40;20033;-58
2021/06/01 10:03:00;;;;;;;6.82;2.47;;;;;;;;;;3586141;40;20032;-58
2021/06/01 10:05:34;;;;;;;5.60;2.63;;;;;;;;;;3586252;40;20028;-59
2021/06/01 10:08:10;;;;;;;5.05;2.65;;;;;;;;;;3570713;40;20056;-59
2021/06/01 10:10:36;;;;;;;4.22;2.40;;;;;;;;;;3582654;40;20494;-59
2021/06/01 10:13:06;;;;;;;3.75;2.22;;;;;;;;;;3585489;40;20052;-59
2021/06/01 10:15:33;;;;;;;4.32;2.20;;;;;;;;;;3585008;40;20041;-59
2021/06/01 10:17:59;;;;;;;8.15;2.40;;;;;;;;;;3586912;40;20058;-59
2021/06/01 10:20:27;;;;;;;7.07;2.55;;;;;;;;;;3587535;40;20045;-59
2021/06/01 10:22:52;;;;;;;4.00;2.00;;;;;;;;;;3586878;40;20048;-59
2021/06/01 10:25:19;;;;;;;7.22;2.25;;;;;;;;;;3587646;40;20032;-59
2021/06/01 10:27:46;;;;;;;5.28;2.20;;;;;;;;;;3587123;40;20276;-59
2021/06/01 10:30:13;;;;;;;5.07;2.53;;;;;;;;;;3585653;40;20036;-59
2021/06/01 10:32:49;;;;;;;4.93;2.38;;;;;;;;;;3586137;40;20051;-59
2021/06/01 10:35:17;;;;;;;4.00;2.28;;;;;;;;;;3585600;40;20055;-58
2021/06/01 10:52:04;;;;;;;3.35;1.92;;;;;;;;;;3584645;40;20121;-59
2021/06/01 10:54:39;;;;;;;4.60;2.20;;;;;;;;;;3584331;40;20357;-58
2021/06/01 10:57:05;;;;;;;5.72;2.50;;;;;;;;;;3586758;40;20132;-59
2021/06/01 11:02:15;;;;;;;4.20;1.98;;;;;;;;;;3585156;40;20535;-58
2021/06/01 11:05:09;;;;;;;3.47;1.85;;;;;;;;;;3586992;40;20641;-59
2021/06/01 11:08:03;;;;;;;3.80;2.00;;;;;;;;;;3586969;40;20098;-59
2021/06/01 11:10:45;;;;;;;7.25;2.22;;;;;;;;;;3585300;40;20048;-59
2021/06/01 11:13:31;;;;;;;4.63;2.08;;;;;;;;;;3585312;40;20114;-59
2021/06/01 11:16:00;;;;;;;3.38;1.80;;;;;;;;;;3586497;40;20044;-58
2021/06/01 11:33:16;;;;;;;3.50;1.92;;;;;;;;;;3576569;40;20051;-58
2021/06/01 11:35:44;;;;;;;3.22;2.03;;;;;;;;;;3586052;40;20037;-59
2021/06/01 11:43:32;;;;;;;4.07;2.40;;;;;;;;;;3589063;40;20047;-59
2021/06/01 11:51:21;;;;;;;6.50;2.35;;;;;;;;;;3586576;40;20084;-60
2021/06/01 11:54:09;;;;;;;5.95;2.47;;;;;;;;;;3585062;40;20073;-60
2021/06/01 11:56:47;;;;;;;3.97;2.67;;;;;;;;;;3585713;40;20043;-60
2021/06/01 12:04:44;;;;;;;4.15;2.45;;;;;;;;;;3585705;40;20676;-60
2021/06/01 12:12:55;;;;;;;4.15;2.15;;;;;;;;;;3584637;40;20047;-59
2021/06/01 12:18:36;;;;;;;6.50;2.20;;;;;;;;;;3585465;40;20037;-59
2021/06/01 12:21:00;;;;;;;5.07;2.10;;;;;;;;;;3577049;40;20077;-59
2021/06/01 12:23:34;;;;;;;13.68;3.00;;;;;;;;;;3586858;40;20032;-59
2021/06/01 12:31:53;;;;;;;3.33;1.90;;;;;;;;;;3584123;40;20113;-59
2021/06/01 12:34:33;;;;;;;4.93;2.45;;;;;;;;;;3585072;40;20137;-59
2021/06/01 12:45:23;;;;;;;3.20;2.10;;;;;;;;;;3551232;40;20037;-59
2021/06/01 13:05:23;;;;;;;4.20;2.35;;;;;;;;;;3573372;40;20040;-59
2021/06/01 13:12:59;;;;;;;3.28;1.95;;;;;;;;;;3540817;40;20042;-59
2021/06/01 13:21:05;;;;;;;5.97;2.30;;;;;;;;;;3584423;40;20041;-59
2021/06/01 13:24:01;;;;;;;4.57;2.42;;;;;;;;;;3585886;40;20122;-59
2021/06/01 13:30:15;;;;;;;4.47;3.15;;;;;;;;;;3587481;40;20051;-59
2021/06/01 13:38:41;;;;;;;6.07;4.18;;;;;;;;;;3587211;40;20220;-59
2021/06/01 13:48:46;;;;;;;12.18;3.50;;;;;;;;;;3588336;40;19936;-59
2021/06/01 13:56:11;;;;;;;3.88;2.00;;;;;;;;;;3585719;40;20036;-59
2021/06/01 14:15:24;;;;;;;5.90;2.63;;;;;;;;;;3588401;40;20489;-60
2021/06/01 14:20:54;;;;;;;9.75;2.42;;;;;;;;;;3584954;40;20036;-59
2021/06/01 15:48:38;;;;;;;4.38;2.42;;;;;;;;;;3586897;40;20068;-63
2021/06/01 16:13:27;;;;;;;3.47;2.08;;;;;;;;;;3584735;40;20143;-64
2021/06/01 16:43:13;;;;;;;8.13;2.45;;;;;;;;;;3584404;40;20324;-64
2021/06/01 17:04:55;;;;;;;5.97;2.72;;;;;;;;;;3586894;40;20036;-65
2021/06/01 17:13:07;;;;;;;3.50;1.88;;;;;;;;;;3585046;40;20052;-65
2021/06/01 17:15:34;;;;;;;4.10;2.17;;;;;;;;;;3586219;40;20046;-64
2021/06/01 17:18:09;;;;;;;3.95;2.00;;;;;;;;;;3579693;40;20040;-66
2021/06/01 17:37:03;;;;;;;3.33;2.00;;;;;;;;;;3586447;40;20040;-65
2021/06/01 17:39:29;;;;;;;3.47;1.98;;;;;;;;;;3588078;40;20170;-63
2021/06/01 17:41:57;;;;;;;4.43;2.08;;;;;;;;;;3587626;40;20099;-63
2021/06/01 17:44:27;;;;;;;3.35;2.00;;;;;;;;;;3585873;40;20277;-62
2021/06/01 17:47:00;;;;;;;3.67;2.00;;;;;;;;;;3586138;40;20048;-64
2021/06/01 17:49:30;;;;;;;3.47;2.00;;;;;;;;;;3587048;40;20072;-63
2021/06/01 17:51:58;;;;;;;4.82;2.15;;;;;;;;;;3585823;40;20072;-63
2021/06/01 17:54:28;;;;;;;5.28;2.47;;;;;;;;;;3585676;40;20312;-62
2021/06/01 17:56:54;;;;;;;5.97;2.15;;;;;;;;;;3586728;40;20065;-64
2021/06/01 17:59:20;;;;;;;4.63;2.30;;;;;;;;;;3587031;39;20069;-63
2021/06/01 18:01:46;;;;;;;7.57;1.85;;;;;;;;;;3585211;40;20146;-65
2021/06/01 18:04:17;;;;;;;4.35;2.20;;;;;;;;;;3586558;40;20033;-64
2021/06/01 18:06:49;;;;;;;7.05;2.20;;;;;;;;;;3586283;40;20032;-64
2021/06/01 19:50:46;;;;;;;5.32;2.63;;;;;;;;;;3582923;40;20036;-64
2021/06/01 19:53:14;;;;;;;11.52;2.78;;;;;;;;;;3584042;40;20036;-63
2021/06/01 19:55:39;;;;;;;4.30;2.70;;;;;;;;;;3584236;40;20114;-63
2021/06/01 19:58:05;;;;;;;6.63;2.78;;;;;;;;;;3585828;40;20052;-63
2021/06/01 20:00:30;;;;;;;3.70;2.67;;;;;;;;;;3583323;40;20357;-63
2021/06/01 20:02:56;;;;;;;4.35;2.72;;;;;;;;;;3584655;40;20044;-64
2021/06/01 20:05:23;;;;;;;4.90;2.90;;;;;;;;;;3585534;40;20051;-64
2021/06/01 20:07:48;;;;;;;17.00;3.20;;;;;;;;;;3584704;40;20090;-63
2021/06/01 20:10:16;;;;;;;5.28;3.17;;;;;;;;;;3577408;40;20029;-64
2021/06/01 20:12:42;;;;;;;7.38;3.28;;;;;;;;;;3586173;40;20076;-64
2021/06/01 20:15:10;;;;;;;4.90;2.80;;;;;;;;;;3584593;40;20037;-64
2021/06/01 20:17:39;;;;;;;6.85;3.30;;;;;;;;;;3584765;40;20072;-63
2021/06/01 20:20:10;;;;;;;5.50;3.05;;;;;;;;;;3583900;40;20093;-64
2021/06/01 20:22:48;;;;;;;8.68;3.58;;;;;;;;;;3585202;40;20036;-64
2021/06/01 20:25:14;;;;;;;5.18;3.28;;;;;;;;;;3587763;40;20351;-64
2021/06/01 20:27:48;;;;;;;6.70;3.13;;;;;;;;;;3585416;40;20174;-64
2021/06/01 20:30:25;;;;;;;5.22;3.38;;;;;;;;;;3586240;40;20366;-64
2021/06/01 20:36:03;;;;;;;5.68;3.60;;;;;;;;;;3586333;40;20033;-63
2021/06/01 20:38:29;;;;;;;5.78;3.45;;;;;;;;;;3582906;40;20028;-63
2021/06/01 20:40:55;;;;;;;7.32;3.22;;;;;;;;;;3586700;40;20051;-64
2021/06/01 20:43:21;;;;;;;4.65;3.03;;;;;;;;;;3576179;40;20032;-63
2021/06/01 20:45:47;;;;;;;5.57;3.38;;;;;;;;;;3585178;40;20125;-63
2021/06/01 20:48:16;;;;;;;5.10;3.38;;;;;;;;;;3586221;40;20047;-64
2021/06/01 20:50:43;;;;;;;5.18;3.80;;;;;;;;;;3585260;40;20033;-64
2021/06/01 20:53:10;;;;;;;5.78;3.42;;;;;;;;;;3585297;40;20098;-64
2021/06/01 20:55:37;;;;;;;9.10;3.28;;;;;;;;;;3585707;40;20044;-63
2021/06/01 20:58:06;;;;;;;5.63;3.10;;;;;;;;;;3586710;40;20052;-63
2021/06/01 21:00:36;;;;;;;5.15;3.33;;;;;;;;;;3584855;40;20040;-63
2021/06/01 21:03:05;;;;;;;6.93;3.78;;;;;;;;;;3585770;40;20326;-64
2021/06/01 21:05:31;;;;;;;5.65;3.95;;;;;;;;;;3586713;40;20121;-64
2021/06/01 21:07:59;;;;;;;6.22;3.72;;;;;;;;;;3585749;40;20048;-64
2021/06/01 21:10:25;;;;;;;7.95;3.55;;;;;;;;;;3583825;40;20037;-64
2021/06/01 21:12:52;;;;;;;10.50;3.97;;;;;;;;;;3584930;40;20045;-64
2021/06/01 21:15:17;;;;;;;5.72;3.80;;;;;;;;;;3584753;40;20509;-64
2021/06/01 21:17:43;;;;;;;6.07;3.65;;;;;;;;;;3575761;40;20106;-64
2021/06/01 21:20:11;;;;;;;6.32;3.70;;;;;;;;;;3583789;40;20149;-63
2021/06/01 21:22:37;;;;;;;6.40;3.70;;;;;;;;;;3586075;40;20048;-63
2021/06/01 21:25:07;;;;;;;6.32;3.95;;;;;;;;;;3584618;40;20499;-64
2021/06/01 21:27:32;;;;;;;5.63;3.65;;;;;;;;;;3583135;40;20043;-64
2021/06/01 21:29:58;;;;;;;5.32;3.47;;;;;;;;;;3585654;40;20442;-63
2021/06/01 21:32:40;;;;;;;5.70;3.50;;;;;;;;;;3585470;40;20051;-64
2021/06/01 21:35:08;;;;;;;6.40;4.20;;;;;;;;;;3577843;40;20063;-63
2021/06/01 21:37:48;;;;;;;5.38;3.20;;;;;;;;;;3585928;40;20049;-64
2021/06/01 21:40:16;;;;;;;5.03;3.22;;;;;;;;;;3577079;40;20348;-64
2021/06/01 21:42:43;;;;;;;7.20;4.25;;;;;;;;;;3585378;40;20028;-63
2021/06/01 21:45:14;;;;;;;10.68;4.25;;;;;;;;;;3586751;40;20090;-63
2021/06/01 21:47:46;;;;;;;9.95;4.05;;;;;;;;;;3587256;40;20327;-63
2021/06/01 21:50:16;;;;;;;9.90;4.53;;;;;;;;;;3586273;40;20036;-64
2021/06/01 21:52:42;;;;;;;8.35;4.38;;;;;;;;;;3586924;40;20020;-64
2021/06/01 21:55:08;;;;;;;9.95;5.00;;;;;;;;;;3587432;40;20298;-64
2021/06/01 21:57:37;;;;;;;8.85;5.00;;;;;;;;;;3587600;40;20518;-64
2021/06/01 22:00:09;;;;;;;5.68;4.57;;;;;;;;;;3585410;40;20029;-64
2021/06/01 22:02:35;;;;;;;13.60;5.03;;;;;;;;;;3587036;40;20032;-63
2021/06/01 22:05:00;;;;;;;7.75;4.57;;;;;;;;;;3587078;40;20170;-63
2021/06/01 22:07:26;;;;;;;6.72;4.80;;;;;;;;;;3586208;40;20052;-63
2021/06/01 22:09:54;;;;;;;10.57;4.65;;;;;;;;;;3580359;40;20032;-63